createdAt,value
2016-10-07T00:00:02.929Z,965.87
2016-10-07T00:01:02.891Z,965.82
2016-10-07T00:02:02.857Z,965.84
2016-10-07T00:03:02.812Z,965.82
2016-10-07T00:04:02.773Z,965.81
2016-10-07T00:05:02.733Z,965.82
2016-10-07T00:06:02.693Z,965.77
2016-10-07T00:07:02.655Z,965.92
2016-10-07T00:08:02.616Z,965.82
2016-10-07T00:09:02.577Z,965.8
2016-10-07T00:10:02.536Z,965.78
2016-10-07T00:11:02.498Z,965.82
2016-10-07T00:12:02.459Z,965.86
2016-10-07T00:13:02.421Z,965.78
2016-10-07T00:14:02.380Z,965.78
2016-10-07T00:15:02.344Z,965.87
2016-10-07T00:16:02.300Z,965.86
2016-10-07T00:17:02.263Z,965.84
2016-10-07T00:18:02.224Z,965.81
2016-10-07T00:19:02.185Z,965.8
2016-10-07T00:20:02.145Z,965.81
2016-10-07T00:21:02.107Z,965.75
2016-10-07T00:22:02.068Z,965.74
2016-10-07T00:23:02.029Z,965.74
2016-10-07T00:24:01.989Z,965.7
2016-10-07T00:25:01.951Z,965.74
2016-10-07T00:26:01.911Z,965.71
2016-10-07T00:27:02.021Z,965.7
2016-10-07T00:28:01.832Z,965.72
2016-10-07T00:29:01.794Z,965.7
2016-10-07T00:30:01.757Z,965.71
2016-10-07T00:31:01.716Z,965.71
2016-10-07T00:32:01.679Z,965.71
2016-10-07T00:33:01.639Z,965.73
2016-10-07T00:34:01.599Z,965.73
2016-10-07T00:35:01.559Z,965.76
2016-10-07T00:36:01.522Z,965.7
2016-10-07T00:37:01.483Z,965.71
2016-10-07T00:38:01.442Z,965.75
2016-10-07T00:39:01.404Z,965.76
2016-10-07T00:40:01.365Z,965.79
2016-10-07T00:41:01.327Z,965.71
2016-10-07T00:42:01.287Z,965.74
2016-10-07T00:43:01.248Z,965.77
2016-10-07T00:44:01.208Z,965.75
2016-10-07T00:45:01.171Z,965.78
2016-10-07T00:46:01.130Z,965.79
2016-10-07T00:47:01.093Z,965.77
2016-10-07T00:48:01.052Z,965.8
2016-10-07T00:49:01.013Z,965.78
2016-10-07T00:50:00.975Z,965.8
2016-10-07T00:51:00.937Z,965.79
2016-10-07T00:52:00.898Z,965.8
2016-10-07T00:53:00.858Z,965.8
2016-10-07T00:54:00.819Z,965.79
2016-10-07T00:55:00.779Z,965.78
2016-10-07T00:56:00.742Z,965.75
2016-10-07T00:57:00.702Z,965.77
2016-10-07T00:58:00.664Z,965.75
2016-10-07T00:59:00.626Z,965.75
2016-10-07T01:00:00.585Z,965.74
2016-10-07T01:01:00.547Z,965.73
2016-10-07T01:02:00.509Z,965.75
2016-10-07T01:03:00.470Z,965.73
2016-10-07T01:04:00.430Z,965.75
2016-10-07T01:05:00.392Z,965.71
2016-10-07T01:06:00.354Z,965.75
2016-10-07T01:07:00.315Z,965.77
2016-10-07T01:08:00.275Z,965.77
2016-10-07T01:09:00.236Z,965.71
2016-10-07T01:10:00.198Z,965.7
2016-10-07T01:11:00.158Z,965.75
2016-10-07T01:12:00.118Z,965.67
2016-10-07T01:13:00.080Z,965.73
2016-10-07T01:14:00.042Z,965.67
2016-10-07T01:15:00.002Z,965.69
2016-10-07T01:15:59.963Z,965.71
2016-10-07T01:16:59.925Z,965.66
2016-10-07T01:17:59.888Z,965.64
2016-10-07T01:18:59.847Z,965.65
2016-10-07T01:19:59.808Z,965.66
2016-10-07T01:20:59.769Z,965.65
2016-10-07T01:21:59.730Z,965.66
2016-10-07T01:22:59.691Z,965.64
2016-10-07T01:23:59.653Z,965.57
2016-10-07T01:24:59.614Z,965.57
2016-10-07T01:25:59.574Z,965.59
2016-10-07T01:26:59.538Z,965.49
2016-10-07T01:27:59.499Z,965.56
2016-10-07T01:28:59.460Z,965.57
2016-10-07T01:29:59.421Z,965.52
2016-10-07T01:30:59.382Z,965.48
2016-10-07T01:31:59.344Z,965.48
2016-10-07T01:32:59.303Z,965.53
2016-10-07T01:33:59.265Z,965.52
2016-10-07T01:34:59.226Z,965.5
2016-10-07T01:35:59.188Z,965.49
2016-10-07T01:36:59.149Z,965.49
2016-10-07T01:37:59.111Z,965.49
2016-10-07T01:38:59.073Z,965.48
2016-10-07T01:39:59.032Z,965.43
2016-10-07T01:40:58.997Z,965.41
2016-10-07T01:41:58.956Z,965.43
2016-10-07T01:42:58.917Z,965.45
2016-10-07T01:43:58.878Z,965.38
2016-10-07T01:44:58.840Z,965.42
2016-10-07T01:45:58.801Z,965.41
2016-10-07T01:46:58.763Z,965.36
2016-10-07T01:47:58.722Z,965.44
2016-10-07T01:48:58.686Z,965.43
2016-10-07T01:49:58.647Z,965.38
2016-10-07T01:50:58.606Z,965.41
2016-10-07T01:51:58.569Z,965.42
2016-10-07T01:52:58.528Z,965.43
2016-10-07T01:53:58.491Z,965.4
2016-10-07T01:54:58.451Z,965.42
2016-10-07T01:55:58.412Z,965.39
2016-10-07T01:56:58.376Z,965.38
2016-10-07T01:57:58.339Z,965.35
2016-10-07T01:58:58.301Z,965.35
2016-10-07T01:59:58.258Z,965.34
2016-10-07T02:00:58.218Z,965.38
2016-10-07T02:01:58.179Z,965.37
2016-10-07T02:02:58.140Z,965.38
2016-10-07T02:03:58.104Z,965.34
2016-10-07T02:04:58.064Z,965.35
2016-10-07T02:05:58.026Z,965.38
2016-10-07T02:06:57.985Z,965.34
2016-10-07T02:07:57.948Z,965.38
2016-10-07T02:08:57.912Z,965.33
2016-10-07T02:09:57.872Z,965.34
2016-10-07T02:10:57.832Z,965.36
2016-10-07T02:11:57.794Z,965.33
2016-10-07T02:12:57.754Z,965.34
2016-10-07T02:13:57.715Z,965.32
2016-10-07T02:14:57.676Z,965.35
2016-10-07T02:15:57.638Z,965.33
2016-10-07T02:16:57.599Z,965.37
2016-10-07T02:17:57.560Z,965.35
2016-10-07T02:18:57.521Z,965.27
2016-10-07T02:19:57.484Z,965.3
2016-10-07T02:20:57.445Z,965.28
2016-10-07T02:21:57.407Z,965.22
2016-10-07T02:22:57.367Z,965.21
2016-10-07T02:23:57.328Z,965.23
2016-10-07T02:24:57.290Z,965.25
2016-10-07T02:25:57.252Z,965.23
2016-10-07T02:26:57.215Z,965.25
2016-10-07T02:27:57.174Z,965.25
2016-10-07T02:28:57.137Z,965.22
2016-10-07T02:29:57.097Z,965.22
2016-10-07T02:30:57.059Z,965.23
2016-10-07T02:31:57.020Z,965.23
2016-10-07T02:32:56.981Z,965.29
2016-10-07T02:33:56.943Z,965.25
2016-10-07T02:34:56.905Z,965.23
2016-10-07T02:35:56.865Z,965.27
2016-10-07T02:36:56.826Z,965.3
2016-10-07T02:37:56.789Z,965.32
2016-10-07T02:38:56.752Z,965.31
2016-10-07T02:39:56.710Z,965.3
2016-10-07T02:40:56.672Z,965.32
2016-10-07T02:41:56.632Z,965.28
2016-10-07T02:42:56.594Z,965.31
2016-10-07T02:43:56.555Z,965.29
2016-10-07T02:44:56.517Z,965.29
2016-10-07T02:45:56.477Z,965.29
2016-10-07T02:46:56.439Z,965.3
2016-10-07T02:47:56.401Z,965.28
2016-10-07T02:48:56.362Z,965.3
2016-10-07T02:49:56.323Z,965.28
2016-10-07T02:50:56.284Z,965.33
2016-10-07T02:51:56.247Z,965.24
2016-10-07T02:52:56.208Z,965.3
2016-10-07T02:53:56.168Z,965.26
2016-10-07T02:54:56.129Z,965.32
2016-10-07T02:55:56.091Z,965.29
2016-10-07T02:56:56.052Z,965.32
2016-10-07T02:57:56.012Z,965.34
2016-10-07T02:58:55.975Z,965.31
2016-10-07T02:59:55.935Z,965.32
2016-10-07T03:00:55.897Z,965.31
2016-10-07T03:01:55.858Z,965.32
2016-10-07T03:02:55.820Z,965.29
2016-10-07T03:03:55.782Z,965.3
2016-10-07T03:04:55.742Z,965.31
2016-10-07T03:05:55.706Z,965.29
2016-10-07T03:06:55.666Z,965.22
2016-10-07T03:07:55.628Z,965.24
2016-10-07T03:08:55.588Z,965.23
2016-10-07T03:09:55.548Z,965.28
2016-10-07T03:10:55.509Z,965.2
2016-10-07T03:11:55.470Z,965.21
2016-10-07T03:12:55.432Z,965.17
2016-10-07T03:13:55.393Z,965.19
2016-10-07T03:14:55.354Z,965.23
2016-10-07T03:15:55.315Z,965.19
2016-10-07T03:16:55.278Z,965.16
2016-10-07T03:17:55.241Z,965.21
2016-10-07T03:18:55.198Z,965.17
2016-10-07T03:19:55.159Z,965.14
2016-10-07T03:20:55.120Z,965.19
2016-10-07T03:21:55.083Z,965.17
2016-10-07T03:22:55.043Z,965.21
2016-10-07T03:23:55.009Z,965.16
2016-10-07T03:24:54.965Z,965.14
2016-10-07T03:25:54.927Z,965.09
2016-10-07T03:26:54.887Z,965.13
2016-10-07T03:27:54.848Z,965.17
2016-10-07T03:28:54.809Z,965.09
2016-10-07T03:29:54.770Z,965.12
2016-10-07T03:30:54.731Z,965.1
2016-10-07T03:31:54.694Z,965.1
2016-10-07T03:32:54.654Z,965.14
2016-10-07T03:33:54.615Z,965.13
2016-10-07T03:34:54.576Z,965.09
2016-10-07T03:35:54.537Z,965.07
2016-10-07T03:36:54.502Z,965.07
2016-10-07T03:37:54.461Z,965.08
2016-10-07T03:38:54.420Z,965.09
2016-10-07T03:39:54.383Z,965.08
2016-10-07T03:40:54.342Z,965.08
2016-10-07T03:41:54.304Z,965.12
2016-10-07T03:42:54.265Z,965.14
2016-10-07T03:43:54.226Z,965.09
2016-10-07T03:44:54.187Z,965.16
2016-10-07T03:45:54.148Z,965.19
2016-10-07T03:46:54.108Z,965.14
2016-10-07T03:47:54.070Z,965.14
2016-10-07T03:48:54.032Z,965.17
2016-10-07T03:49:53.995Z,965.21
2016-10-07T03:50:53.955Z,965.16
2016-10-07T03:51:53.914Z,965.21
2016-10-07T03:52:53.875Z,965.19
2016-10-07T03:53:53.836Z,965.15
2016-10-07T03:54:53.799Z,965.17
2016-10-07T03:55:53.759Z,965.12
2016-10-07T03:56:53.719Z,965.15
2016-10-07T03:57:53.680Z,965.21
2016-10-07T03:58:53.641Z,965.18
2016-10-07T03:59:53.601Z,965.2
2016-10-07T04:00:53.564Z,965.17
2016-10-07T04:01:53.526Z,965.2
2016-10-07T04:02:53.485Z,965.17
2016-10-07T04:03:53.446Z,965.22
2016-10-07T04:04:53.408Z,965.15
2016-10-07T04:05:53.369Z,965.15
2016-10-07T04:06:53.332Z,965.16
2016-10-07T04:07:53.291Z,965.17
2016-10-07T04:08:53.257Z,965.15
2016-10-07T04:09:53.211Z,965.11
2016-10-07T04:10:53.172Z,965.11
2016-10-07T04:11:53.135Z,965.13
2016-10-07T04:12:53.095Z,965.15
2016-10-07T04:13:53.055Z,965.18
2016-10-07T04:14:53.017Z,965.19
2016-10-07T04:15:52.979Z,965.18
2016-10-07T04:16:52.940Z,965.16
2016-10-07T04:17:52.900Z,965.16
2016-10-07T04:18:52.861Z,965.14
2016-10-07T04:19:52.823Z,965.18
2016-10-07T04:20:52.782Z,965.17
2016-10-07T04:21:52.744Z,965.21
2016-10-07T04:22:52.704Z,965.19
2016-10-07T04:23:52.665Z,965.21
2016-10-07T04:24:52.627Z,965.23
2016-10-07T04:25:52.587Z,965.22
2016-10-07T04:26:52.548Z,965.2
2016-10-07T04:27:52.510Z,965.26
2016-10-07T04:28:52.469Z,965.26
2016-10-07T04:29:52.431Z,965.28
2016-10-07T04:30:52.393Z,965.28
2016-10-07T04:31:52.353Z,965.31
2016-10-07T04:32:52.314Z,965.29
2016-10-07T04:33:52.278Z,965.3
2016-10-07T04:34:52.238Z,965.29
2016-10-07T04:35:52.197Z,965.26
2016-10-07T04:36:52.158Z,965.28
2016-10-07T04:37:52.119Z,965.27
2016-10-07T04:38:52.081Z,965.28
2016-10-07T04:39:52.039Z,965.3
2016-10-07T04:40:52.001Z,965.3
2016-10-07T04:41:51.963Z,965.29
2016-10-07T04:42:51.923Z,965.28
2016-10-07T04:43:51.886Z,965.29
2016-10-07T04:44:51.847Z,965.26
2016-10-07T04:45:51.808Z,965.25
2016-10-07T04:46:51.768Z,965.27
2016-10-07T04:47:51.729Z,965.27
2016-10-07T04:48:51.690Z,965.25
2016-10-07T04:49:51.651Z,965.24
2016-10-07T04:50:51.612Z,965.23
2016-10-07T04:51:51.573Z,965.25
2016-10-07T04:52:51.534Z,965.26
2016-10-07T04:53:51.495Z,965.27
2016-10-07T04:54:51.455Z,965.28
2016-10-07T04:55:51.418Z,965.3
2016-10-07T04:56:51.380Z,965.29
2016-10-07T04:57:51.340Z,965.33
2016-10-07T04:58:51.300Z,965.29
2016-10-07T04:59:51.268Z,965.33
2016-10-07T05:00:51.240Z,965.32
2016-10-07T05:01:51.183Z,965.37
2016-10-07T05:02:51.144Z,965.35
2016-10-07T05:03:51.105Z,965.37
2016-10-07T05:04:51.067Z,965.33
2016-10-07T05:05:51.031Z,965.32
2016-10-07T05:06:50.989Z,965.36
2016-10-07T05:07:50.951Z,965.32
2016-10-07T05:08:50.912Z,965.34
2016-10-07T05:09:50.873Z,965.34
2016-10-07T05:10:50.834Z,965.34
2016-10-07T05:11:50.795Z,965.37
2016-10-07T05:12:50.755Z,965.37
2016-10-07T05:13:50.716Z,965.36
2016-10-07T05:14:50.678Z,965.39
2016-10-07T05:15:50.638Z,965.36
2016-10-07T05:16:50.599Z,965.34
2016-10-07T05:17:50.559Z,965.33
2016-10-07T05:18:50.523Z,965.35
2016-10-07T05:19:50.484Z,965.34
2016-10-07T05:20:50.444Z,965.38
2016-10-07T05:21:50.405Z,965.37
2016-10-07T05:22:50.366Z,965.37
2016-10-07T05:23:50.325Z,965.35
2016-10-07T05:24:50.290Z,965.36
2016-10-07T05:25:50.251Z,965.36
2016-10-07T05:26:50.209Z,965.36
2016-10-07T05:27:50.174Z,965.35
2016-10-07T05:28:50.134Z,965.33
2016-10-07T05:29:50.095Z,965.36
2016-10-07T05:30:50.055Z,965.38
2016-10-07T05:31:50.017Z,965.4
2016-10-07T05:32:49.980Z,965.38
2016-10-07T05:33:49.942Z,965.38
2016-10-07T05:34:49.900Z,965.4
2016-10-07T05:35:49.862Z,965.39
2016-10-07T05:36:49.823Z,965.42
2016-10-07T05:37:49.785Z,965.45
2016-10-07T05:38:49.746Z,965.39
2016-10-07T05:39:49.709Z,965.38
2016-10-07T05:40:49.669Z,965.4
2016-10-07T05:41:49.629Z,965.44
2016-10-07T05:42:49.591Z,965.47
2016-10-07T05:43:49.553Z,965.46
2016-10-07T05:44:49.516Z,965.46
2016-10-07T05:45:49.475Z,965.51
2016-10-07T05:46:49.436Z,965.53
2016-10-07T05:47:49.399Z,965.53
2016-10-07T05:48:49.359Z,965.56
2016-10-07T05:49:49.323Z,965.56
2016-10-07T05:50:49.283Z,965.56
2016-10-07T05:51:49.245Z,965.53
2016-10-07T05:52:49.209Z,965.52
2016-10-07T05:53:49.167Z,965.52
2016-10-07T05:54:49.129Z,965.55
2016-10-07T05:55:49.090Z,965.51
2016-10-07T05:56:49.052Z,965.5
2016-10-07T05:57:49.013Z,965.52
2016-10-07T05:58:48.983Z,965.54
2016-10-07T05:59:48.936Z,965.53
2016-10-07T06:00:48.898Z,965.54
2016-10-07T06:01:48.861Z,965.6
2016-10-07T06:02:48.823Z,965.54
2016-10-07T06:03:48.785Z,965.55
2016-10-07T06:04:48.746Z,965.53
2016-10-07T06:05:48.707Z,965.54
2016-10-07T06:06:48.669Z,965.56
2016-10-07T06:07:48.632Z,965.6
2016-10-07T06:08:48.593Z,965.54
2016-10-07T06:09:48.554Z,965.56
2016-10-07T06:10:48.518Z,965.57
2016-10-07T06:11:48.478Z,965.57
2016-10-07T06:12:48.442Z,965.59
2016-10-07T06:13:48.406Z,965.6
2016-10-07T06:14:48.365Z,965.63
2016-10-07T06:15:48.329Z,965.65
2016-10-07T06:16:48.292Z,965.67
2016-10-07T06:17:48.250Z,965.64
2016-10-07T06:18:48.213Z,965.67
2016-10-07T06:19:48.176Z,965.66
2016-10-07T06:20:48.136Z,965.67
2016-10-07T06:21:48.098Z,965.71
2016-10-07T06:22:48.060Z,965.68
2016-10-07T06:23:48.022Z,965.7
2016-10-07T06:24:47.984Z,965.69
2016-10-07T06:25:47.945Z,965.72
2016-10-07T06:26:47.908Z,965.69
2016-10-07T06:27:47.870Z,965.68
2016-10-07T06:28:47.832Z,965.76
2016-10-07T06:29:47.794Z,965.74
2016-10-07T06:30:47.757Z,965.73
2016-10-07T06:31:47.720Z,965.77
2016-10-07T06:32:47.680Z,965.79
2016-10-07T06:33:47.643Z,965.77
2016-10-07T06:34:47.604Z,965.83
2016-10-07T06:35:47.566Z,965.83
2016-10-07T06:36:47.528Z,965.8
2016-10-07T06:37:47.491Z,965.83
2016-10-07T06:38:47.454Z,965.8
2016-10-07T06:39:47.413Z,965.86
2016-10-07T06:40:47.378Z,965.84
2016-10-07T06:41:47.339Z,965.83
2016-10-07T06:42:47.301Z,965.86
2016-10-07T06:43:47.266Z,965.87
2016-10-07T06:44:47.224Z,965.83
2016-10-07T06:45:47.189Z,965.88
2016-10-07T06:46:47.149Z,965.89
2016-10-07T06:47:47.112Z,965.88
2016-10-07T06:48:47.073Z,965.89
2016-10-07T06:49:47.038Z,965.89
2016-10-07T06:50:46.998Z,965.92
2016-10-07T06:51:46.959Z,965.94
2016-10-07T06:52:46.924Z,965.88
2016-10-07T06:53:46.885Z,965.86
2016-10-07T06:54:46.847Z,965.91
2016-10-07T06:55:46.810Z,965.92
2016-10-07T06:56:46.772Z,965.88
2016-10-07T06:57:46.733Z,965.88
2016-10-07T06:58:46.695Z,965.86
2016-10-07T06:59:46.657Z,965.94
2016-10-07T07:00:46.621Z,965.91
2016-10-07T07:01:46.583Z,965.86
2016-10-07T07:02:46.546Z,965.9
2016-10-07T07:03:46.508Z,965.93
2016-10-07T07:04:46.471Z,965.94
2016-10-07T07:05:46.433Z,965.96
2016-10-07T07:06:46.395Z,965.95
2016-10-07T07:07:46.359Z,965.95
2016-10-07T07:08:46.326Z,965.95
2016-10-07T07:09:46.285Z,965.99
2016-10-07T07:10:46.246Z,965.99
2016-10-07T07:11:46.208Z,965.97
2016-10-07T07:12:46.175Z,966.01
2016-10-07T07:13:46.133Z,966.02
2016-10-07T07:14:46.096Z,966.03
2016-10-07T07:15:46.060Z,966.04
2016-10-07T07:16:46.020Z,966.06
2016-10-07T07:17:45.984Z,966.11
2016-10-07T07:18:45.947Z,966.1
2016-10-07T07:19:45.912Z,966.14
2016-10-07T07:20:45.873Z,966.15
2016-10-07T07:21:45.836Z,966.14
2016-10-07T07:22:45.798Z,966.12
2016-10-07T07:23:45.761Z,966.16
2016-10-07T07:24:45.724Z,966.17
2016-10-07T07:25:45.689Z,966.2
2016-10-07T07:26:45.651Z,966.2
2016-10-07T07:27:45.615Z,966.18
2016-10-07T07:28:45.576Z,966.21
2016-10-07T07:29:45.537Z,966.17
2016-10-07T07:30:45.500Z,966.22
2016-10-07T07:31:45.463Z,966.19
2016-10-07T07:32:45.427Z,966.15
2016-10-07T07:33:45.391Z,966.22
2016-10-07T07:34:45.351Z,966.19
2016-10-07T07:35:45.315Z,966.2
2016-10-07T07:36:45.280Z,966.14
2016-10-07T07:37:45.240Z,966.16
2016-10-07T07:38:45.204Z,966.14
2016-10-07T07:39:45.167Z,966.15
2016-10-07T07:40:45.131Z,966.16
2016-10-07T07:41:45.093Z,966.13
2016-10-07T07:42:45.056Z,966.13
2016-10-07T07:43:45.021Z,966.12
2016-10-07T07:44:44.982Z,966.09
2016-10-07T07:45:44.946Z,966.1
2016-10-07T07:46:44.911Z,966.11
2016-10-07T07:47:44.872Z,966.14
2016-10-07T07:48:44.836Z,966.14
2016-10-07T07:49:44.799Z,966.17
2016-10-07T07:50:44.762Z,966.19
2016-10-07T07:51:44.726Z,966.17
2016-10-07T07:52:44.688Z,966.15
2016-10-07T07:53:44.652Z,966.19
2016-10-07T07:54:44.615Z,966.17
2016-10-07T07:55:44.579Z,966.14
2016-10-07T07:56:44.542Z,966.17
2016-10-07T07:57:44.506Z,966.19
2016-10-07T07:58:44.471Z,966.18
2016-10-07T07:59:44.431Z,966.21
2016-10-07T08:00:44.398Z,966.22
2016-10-07T08:01:44.360Z,966.28
2016-10-07T08:02:44.322Z,966.22
2016-10-07T08:03:44.285Z,966.22
2016-10-07T08:04:44.250Z,966.24
2016-10-07T08:05:44.214Z,966.26
2016-10-07T08:06:44.177Z,966.26
2016-10-07T08:07:44.138Z,966.22
2016-10-07T08:08:44.102Z,966.25
2016-10-07T08:09:44.068Z,966.27
2016-10-07T08:10:44.031Z,966.22
2016-10-07T08:11:43.995Z,966.24
2016-10-07T08:12:43.958Z,966.22
2016-10-07T08:13:43.922Z,966.24
2016-10-07T08:14:43.886Z,966.23
2016-10-07T08:15:43.849Z,966.26
2016-10-07T08:16:43.813Z,966.22
2016-10-07T08:17:43.778Z,966.21
2016-10-07T08:18:43.741Z,966.22
2016-10-07T08:19:43.704Z,966.23
2016-10-07T08:20:43.669Z,966.21
2016-10-07T08:21:43.632Z,966.18
2016-10-07T08:22:43.596Z,966.2
2016-10-07T08:23:43.561Z,966.2
2016-10-07T08:24:43.524Z,966.27
2016-10-07T08:25:43.489Z,966.26
2016-10-07T08:26:43.452Z,966.27
2016-10-07T08:27:43.417Z,966.28
2016-10-07T08:28:43.381Z,966.3
2016-10-07T08:29:43.344Z,966.29
2016-10-07T08:30:43.309Z,966.28
2016-10-07T08:31:43.274Z,966.32
2016-10-07T08:32:43.238Z,966.3
2016-10-07T08:33:43.201Z,966.24
2016-10-07T08:34:43.168Z,966.31
2016-10-07T08:35:43.132Z,966.28
2016-10-07T08:36:43.095Z,966.26
2016-10-07T08:37:43.060Z,966.28
2016-10-07T08:38:43.025Z,966.24
2016-10-07T08:39:42.990Z,966.23
2016-10-07T08:40:42.956Z,966.24
2016-10-07T08:41:42.919Z,966.24
2016-10-07T08:42:42.883Z,966.22
2016-10-07T08:43:42.845Z,966.27
2016-10-07T08:44:42.812Z,966.25
2016-10-07T08:45:42.776Z,966.28
2016-10-07T08:46:42.741Z,966.23
2016-10-07T08:47:42.704Z,966.23
2016-10-07T08:48:42.671Z,966.28
2016-10-07T08:49:42.633Z,966.23
2016-10-07T08:50:42.597Z,966.26
2016-10-07T08:51:42.560Z,966.25
2016-10-07T08:52:42.525Z,966.28
2016-10-07T08:53:42.491Z,966.33
2016-10-07T08:54:42.453Z,966.29
2016-10-07T08:55:42.419Z,966.32
2016-10-07T08:56:42.384Z,966.3
2016-10-07T08:57:42.349Z,966.29
2016-10-07T08:58:42.318Z,966.32
2016-10-07T08:59:42.276Z,966.28
2016-10-07T09:00:42.242Z,966.27
2016-10-07T09:01:42.210Z,966.26
2016-10-07T09:02:42.171Z,966.21
2016-10-07T09:03:42.135Z,966.19
2016-10-07T09:04:42.102Z,966.23
2016-10-07T09:05:42.065Z,966.26
2016-10-07T09:06:42.032Z,966.28
2016-10-07T09:07:41.996Z,966.24
2016-10-07T09:08:41.962Z,966.27
2016-10-07T09:09:41.927Z,966.23
2016-10-07T09:10:41.893Z,966.26
2016-10-07T09:11:41.859Z,966.25
2016-10-07T09:12:41.823Z,966.26
2016-10-07T09:13:41.788Z,966.25
2016-10-07T09:14:41.753Z,966.23
2016-10-07T09:15:41.720Z,966.25
2016-10-07T09:16:41.686Z,966.3
2016-10-07T09:17:41.650Z,966.3
2016-10-07T09:18:41.616Z,966.27
2016-10-07T09:19:41.582Z,966.28
2016-10-07T09:20:41.546Z,966.28
2016-10-07T09:21:41.514Z,966.27
2016-10-07T09:22:41.477Z,966.27
2016-10-07T09:23:41.444Z,966.28
2016-10-07T09:24:41.408Z,966.3
2016-10-07T09:25:41.374Z,966.36
2016-10-07T09:26:41.341Z,966.33
2016-10-07T09:27:41.305Z,966.3
2016-10-07T09:28:41.269Z,966.32
2016-10-07T09:29:41.236Z,966.38
2016-10-07T09:30:41.202Z,966.35
2016-10-07T09:31:41.166Z,966.32
2016-10-07T09:32:41.131Z,966.35
2016-10-07T09:33:41.098Z,966.35
2016-10-07T09:34:41.061Z,966.31
2016-10-07T09:35:41.028Z,966.34
2016-10-07T09:36:40.994Z,966.31
2016-10-07T09:37:40.961Z,966.25
2016-10-07T09:38:40.923Z,966.26
2016-10-07T09:39:40.890Z,966.29
2016-10-07T09:40:40.856Z,966.28
2016-10-07T09:41:40.821Z,966.29
2016-10-07T09:42:40.787Z,966.32
2016-10-07T09:43:40.752Z,966.32
2016-10-07T09:44:40.719Z,966.25
2016-10-07T09:45:40.684Z,966.25
2016-10-07T09:46:40.649Z,966.3
2016-10-07T09:47:40.615Z,966.32
2016-10-07T09:48:40.580Z,966.27
2016-10-07T09:49:40.546Z,966.31
2016-10-07T09:50:40.512Z,966.27
2016-10-07T09:51:40.480Z,966.32
2016-10-07T09:52:40.443Z,966.27
2016-10-07T09:53:40.410Z,966.25
2016-10-07T09:54:40.376Z,966.33
2016-10-07T09:55:40.343Z,966.35
2016-10-07T09:56:40.306Z,966.33
2016-10-07T09:57:40.274Z,966.34
2016-10-07T09:58:40.240Z,966.36
2016-10-07T09:59:40.208Z,966.31
2016-10-07T10:00:40.173Z,966.36
2016-10-07T10:01:40.141Z,966.34
2016-10-07T10:02:40.108Z,966.35
2016-10-07T10:03:40.077Z,966.47
2016-10-07T10:04:40.042Z,966.45
2016-10-07T10:05:40.010Z,966.49
2016-10-07T10:06:39.976Z,966.59
2016-10-07T10:07:39.944Z,966.58
2016-10-07T10:08:39.910Z,966.61
2016-10-07T10:09:39.878Z,966.73
2016-10-07T10:10:39.845Z,966.43
2016-10-07T10:11:39.814Z,966.45
2016-10-07T10:12:39.784Z,966.42
2016-10-07T10:13:39.751Z,966.45
2016-10-07T10:14:39.720Z,966.4
2016-10-07T10:15:39.685Z,966.38
2016-10-07T10:16:39.654Z,966.4
2016-10-07T10:17:39.623Z,966.39
2016-10-07T10:18:39.591Z,966.43
2016-10-07T10:19:39.559Z,966.36
2016-10-07T10:20:39.529Z,966.37
2016-10-07T10:21:39.497Z,966.36
2016-10-07T10:22:39.463Z,966.34
2016-10-07T10:23:39.433Z,966.44
2016-10-07T10:24:39.400Z,966.52
2016-10-07T10:25:39.370Z,966.54
2016-10-07T10:26:39.337Z,966.47
2016-10-07T10:27:39.305Z,966.43
2016-10-07T10:28:39.274Z,966.43
2016-10-07T10:29:39.243Z,966.33
2016-10-07T10:30:39.210Z,966.41
2016-10-07T10:31:39.178Z,966.51
2016-10-07T10:32:39.147Z,966.55
2016-10-07T10:33:39.114Z,966.55
2016-10-07T10:34:39.082Z,966.39
2016-10-07T10:35:39.050Z,966.41
2016-10-07T10:36:39.021Z,966.51
2016-10-07T10:37:38.987Z,966.42
2016-10-07T10:38:38.956Z,966.43
2016-10-07T10:39:38.924Z,966.42
2016-10-07T10:40:38.896Z,966.7
2016-10-07T10:41:38.863Z,966.69
2016-10-07T10:42:38.831Z,966.65
2016-10-07T10:43:38.800Z,966.64
2016-10-07T10:44:38.775Z,966.58
2016-10-07T10:45:38.739Z,966.59
2016-10-07T10:46:38.709Z,966.56
2016-10-07T10:47:38.678Z,966.65
2016-10-07T10:48:38.649Z,966.77
2016-10-07T10:49:38.622Z,966.95
2016-10-07T10:50:38.595Z,967.51
2016-10-07T10:51:38.566Z,967.92
2016-10-07T10:52:38.539Z,968.04
2016-10-07T10:53:38.511Z,967.81
2016-10-07T10:54:38.483Z,967.34
2016-10-07T10:55:38.457Z,966.94
2016-10-07T10:56:38.429Z,966.74
2016-10-07T10:57:38.403Z,966.82
2016-10-07T10:58:38.377Z,966.89
2016-10-07T10:59:38.353Z,966.85
2016-10-07T11:00:38.326Z,966.83
2016-10-07T11:01:38.298Z,966.48
2016-10-07T11:02:38.272Z,966.35
2016-10-07T11:03:38.247Z,966.69
2016-10-07T11:04:38.222Z,966.56
2016-10-07T11:05:38.195Z,966.61
2016-10-07T11:06:38.167Z,966.57
2016-10-07T11:07:38.140Z,966.27
2016-10-07T11:08:38.113Z,966.3
2016-10-07T11:09:38.086Z,966.26
2016-10-07T11:10:38.059Z,966.25
2016-10-07T11:11:38.031Z,966.26
2016-10-07T11:12:38.004Z,966.29
2016-10-07T11:13:37.974Z,966.17
2016-10-07T11:14:37.947Z,966.31
2016-10-07T11:15:37.918Z,966.53
2016-10-07T11:16:37.889Z,966.69
2016-10-07T11:17:37.859Z,966.8
2016-10-07T11:18:37.830Z,966.45
2016-10-07T11:19:37.802Z,966.2
2016-10-07T11:20:37.771Z,966.22
2016-10-07T11:21:37.741Z,966.22
2016-10-07T11:22:37.712Z,966.17
2016-10-07T11:23:37.683Z,966.14
2016-10-07T11:24:37.651Z,966.18
2016-10-07T11:25:37.618Z,966.22
2016-10-07T11:26:37.590Z,966.19
2016-10-07T11:27:37.559Z,966.2
2016-10-07T11:28:37.528Z,966.11
2016-10-07T11:29:37.498Z,966.19
2016-10-07T11:30:37.467Z,966.08
2016-10-07T11:31:37.435Z,966.03
2016-10-07T11:32:37.405Z,966.06
2016-10-07T11:33:37.374Z,966.04
2016-10-07T11:34:37.352Z,965.99
2016-10-07T11:35:37.311Z,965.96
2016-10-07T11:36:37.279Z,965.97
2016-10-07T11:37:37.248Z,965.95
2016-10-07T11:38:37.216Z,966.02
2016-10-07T11:39:37.185Z,966.03
2016-10-07T11:40:37.152Z,966.02
2016-10-07T11:41:37.119Z,966.03
2016-10-07T11:42:37.087Z,966.05
2016-10-07T11:43:37.055Z,965.97
2016-10-07T11:44:37.023Z,965.96
2016-10-07T11:45:36.991Z,965.94
2016-10-07T11:46:36.958Z,965.94
2016-10-07T11:47:36.924Z,965.98
2016-10-07T11:48:36.893Z,965.94
2016-10-07T11:49:36.861Z,965.95
2016-10-07T11:50:36.828Z,965.91
2016-10-07T11:51:36.796Z,965.82
2016-10-07T11:52:36.764Z,965.85
2016-10-07T11:53:36.730Z,965.81
2016-10-07T11:54:36.698Z,965.84
2016-10-07T11:55:36.667Z,965.83
2016-10-07T11:56:36.633Z,965.84
2016-10-07T11:57:36.601Z,965.81
2016-10-07T11:58:36.567Z,965.82
2016-10-07T11:59:36.536Z,965.85
2016-10-07T12:00:36.504Z,965.88
2016-10-07T12:01:36.470Z,965.87
2016-10-07T12:02:36.439Z,965.85
2016-10-07T12:03:36.405Z,965.87
2016-10-07T12:04:36.372Z,965.91
2016-10-07T12:05:36.340Z,965.9
2016-10-07T12:06:36.308Z,965.9
2016-10-07T12:07:36.274Z,965.88
2016-10-07T12:08:36.241Z,965.9
2016-10-07T12:09:36.209Z,965.9
2016-10-07T12:10:36.177Z,965.91
2016-10-07T12:11:36.145Z,965.89
2016-10-07T12:12:36.111Z,965.88
2016-10-07T12:13:36.078Z,965.88
2016-10-07T12:14:36.047Z,965.85
2016-10-07T12:15:36.013Z,965.86
2016-10-07T12:16:35.982Z,965.88
2016-10-07T12:17:35.950Z,965.86
2016-10-07T12:18:35.918Z,965.82
2016-10-07T12:19:35.884Z,965.82
2016-10-07T12:20:35.852Z,965.76
2016-10-07T12:21:35.821Z,965.82
2016-10-07T12:22:35.790Z,965.81
2016-10-07T12:23:35.755Z,965.82
2016-10-07T12:24:35.723Z,965.84
2016-10-07T12:25:35.691Z,965.8
2016-10-07T12:26:35.658Z,965.81
2016-10-07T12:27:35.626Z,965.81
2016-10-07T12:28:35.593Z,965.79
2016-10-07T12:29:35.561Z,965.83